Time;durP1;ratioP1;P1;durP2;ratioP2;P2;SDS_P1;SDS_P2;PMS_P1;PMS_P2;Temp;Humidity;BMP_temperature;BMP_pressure;BME280_temperature;BME280_humidity;BME280_pressure;Samples;Min_cycle;Max_cycle;Signal;HPM_P1;HPM_P2
2024/01/11 00:01:01;;;;;;;7.00;2.90;;;;;;;-0.22;100.00;100645.20;109516;1251;60195;-65
2024/01/11 00:03:48;;;;;;;7.40;3.10;;;;;;;-0.24;100.00;100642.11;109590;1251;72030;-65
2024/01/11 00:06:43;;;;;;;7.90;3.70;;;;;;;-0.24;100.00;100649.63;109570;1251;69005;-64
2024/01/11 00:09:31;;;;;;;8.10;3.40;;;;;;;-0.24;100.00;100648.92;109645;1254;71055;-64
2024/01/11 00:12:19;;;;;;;7.60;3.50;;;;;;;-0.22;100.00;100657.09;109378;1254;57468;-66
2024/01/11 00:15:08;;;;;;;8.60;4.10;;;;;;;-0.24;100.00;100664.46;109390;1254;61067;-64
2024/01/11 00:17:56;;;;;;;8.00;4.00;;;;;;;-0.24;100.00;100673.71;109228;1255;71996;-64
2024/01/11 00:20:44;;;;;;;8.20;3.70;;;;;;;-0.24;100.00;100671.77;109267;1254;66817;-64
2024/01/11 00:23:32;;;;;;;8.00;3.60;;;;;;;-0.23;100.00;100662.86;109279;1254;73456;-65
2024/01/11 00:26:20;;;;;;;9.00;4.50;;;;;;;-0.22;100.00;100655.69;109409;1254;58446;-65
2024/01/11 00:29:08;;;;;;;8.90;4.10;;;;;;;-0.22;100.00;100638.59;109370;1254;59964;-64
2024/01/11 00:31:57;;;;;;;9.40;3.90;;;;;;;-0.21;100.00;100632.30;109315;1254;71981;-65
2024/01/11 00:34:45;;;;;;;8.40;4.20;;;;;;;-0.23;100.00;100628.16;109309;1254;67616;-65
2024/01/11 00:37:33;;;;;;;10.80;4.20;;;;;;;-0.24;100.00;100634.64;109365;1254;71411;-65
2024/01/11 00:40:20;;;;;;;9.60;4.60;;;;;;;-0.22;100.00;100629.69;109253;1255;58571;-64
2024/01/11 00:43:08;;;;;;;9.50;4.00;;;;;;;-0.21;100.00;100617.11;108748;1251;1002821;-63
2024/01/11 00:45:56;;;;;;;8.70;4.10;;;;;;;-0.20;100.00;100609.94;109690;1251;71932;-65
2024/01/11 00:48:44;;;;;;;9.40;3.80;;;;;;;-0.17;100.00;100609.70;109675;1250;67718;-65
2024/01/11 00:51:32;;;;;;;9.20;4.20;;;;;;;-0.15;100.00;100610.02;109661;1251;73691;-64
2024/01/11 00:54:20;;;;;;;10.40;4.20;;;;;;;-0.13;100.00;100604.90;109621;1251;57867;-64
2024/01/11 00:57:08;;;;;;;8.10;3.80;;;;;;;-0.11;100.00;100602.41;109577;1251;59095;-64
2024/01/11 00:59:55;;;;;;;8.80;3.70;;;;;;;-0.09;100.00;100615.95;109641;1251;71081;-64
2024/01/11 01:02:43;;;;;;;7.40;3.10;;;;;;;-0.07;100.00;100622.01;109701;1251;66695;-65
2024/01/11 01:05:31;;;;;;;7.80;3.70;;;;;;;-0.06;100.00;100626.00;109461;1251;73704;-65
2024/01/11 01:08:19;;;;;;;9.10;3.70;;;;;;;-0.04;100.00;100634.50;109470;1251;57280;-65
2024/01/11 01:11:07;;;;;;;8.20;4.00;;;;;;;-0.02;100.00;100645.79;109598;1251;58027;-66
2024/01/11 01:13:55;;;;;;;9.20;3.80;;;;;;;0.00;100.00;100655.00;109506;1251;72115;-65
2024/01/11 01:16:43;;;;;;;8.60;3.90;;;;;;;-0.00;100.00;100652.03;109616;1251;67862;-64
2024/01/11 01:19:31;;;;;;;8.30;3.60;;;;;;;0.03;100.00;100648.63;109663;1251;71197;-65
2024/01/11 01:22:18;;;;;;;8.10;3.40;;;;;;;0.05;100.00;100634.10;109603;1252;58760;-65
2024/01/11 01:25:07;;;;;;;8.80;3.90;;;;;;;0.08;100.00;100621.98;109483;1251;58989;-66
2024/01/11 01:27:56;;;;;;;7.70;3.40;;;;;;;0.09;100.00;100602.77;109658;1252;71985;-66
2024/01/11 01:30:44;;;;;;;7.50;3.10;;;;;;;0.07;100.00;100590.27;109436;1251;68013;-65
2024/01/11 01:33:32;;;;;;;7.90;3.00;;;;;;;0.06;100.00;100564.11;109663;1251;72337;-66
2024/01/11 01:36:20;;;;;;;7.40;2.70;;;;;;;0.06;100.00;100563.77;109576;1250;58965;-66
2024/01/11 01:39:08;;;;;;;8.80;3.70;;;;;;;0.05;100.00;100558.20;109613;1251;59123;-65
2024/01/11 01:41:56;;;;;;;7.80;3.00;;;;;;;0.06;100.00;100574.08;109441;1250;71979;-67
2024/01/11 01:44:44;;;;;;;7.70;2.70;;;;;;;0.03;100.00;100573.45;109678;1253;67912;-70
2024/01/11 01:47:31;;;;;;;6.80;2.70;;;;;;;0.06;100.00;100570.21;109479;1251;72662;-68
2024/01/11 01:50:20;;;;;;;9.10;3.40;;;;;;;0.07;100.00;100551.87;109618;1251;58496;-67
2024/01/11 01:53:08;;;;;;;7.50;3.40;;;;;;;0.08;100.00;100549.75;109686;1252;61331;-67
2024/01/11 01:55:57;;;;;;;8.00;2.80;;;;;;;0.06;100.00;100551.91;109724;1251;71041;-64
2024/01/11 01:58:46;;;;;;;7.50;2.60;;;;;;;0.06;100.00;100549.81;109663;1251;67859;-65
2024/01/11 02:01:34;;;;;;;7.00;2.40;;;;;;;0.05;100.00;100556.27;109621;1250;70302;-66
2024/01/11 02:04:22;;;;;;;8.10;2.60;;;;;;;0.03;100.00;100560.69;109653;1251;57434;-66
2024/01/11 02:07:11;;;;;;;7.20;2.50;;;;;;;0.01;100.00;100559.20;109617;1251;60436;-66
2024/01/11 02:09:59;;;;;;;11.00;4.10;;;;;;;-0.03;100.00;100543.22;109591;1251;70961;-64
2024/01/11 02:12:46;;;;;;;25.40;6.30;;;;;;;-0.05;100.00;100525.48;109658;1251;66344;-64
2024/01/11 02:15:34;;;;;;;25.70;8.40;;;;;;;-0.09;100.00;100520.36;109654;1250;71315;-64
2024/01/11 02:18:22;;;;;;;23.90;8.50;;;;;;;-0.09;100.00;100518.09;109592;1251;58880;-64
2024/01/11 02:21:15;;;;;;;16.00;6.80;;;;;;;-0.13;100.00;100518.19;109715;1251;61517;-64
2024/01/11 02:24:07;;;;;;;14.70;5.60;;;;;;;-0.11;100.00;100523.74;109482;1250;70667;-65
2024/01/11 02:27:04;;;;;;;17.00;6.00;;;;;;;-0.12;100.00;100519.74;109497;1251;66695;-64
2024/01/11 02:29:52;;;;;;;15.10;6.50;;;;;;;-0.14;100.00;100520.48;109450;1251;72478;-65
2024/01/11 02:32:42;;;;;;;19.30;7.00;;;;;;;-0.15;100.00;100513.37;109670;1251;57069;-63
2024/01/11 02:35:31;;;;;;;12.80;5.10;;;;;;;-0.15;100.00;100526.62;109604;1251;61288;-63
2024/01/11 02:38:19;;;;;;;9.30;3.40;;;;;;;-0.16;100.00;100525.77;109641;1251;70909;-65
2024/01/11 02:41:08;;;;;;;7.60;2.90;;;;;;;-0.16;100.00;100522.46;109691;1251;67091;-63
2024/01/11 02:43:56;;;;;;;8.00;2.60;;;;;;;-0.18;100.00;100504.54;109442;1253;71073;-64
2024/01/11 02:46:44;;;;;;;6.90;2.80;;;;;;;-0.18;100.00;100489.73;109633;1251;58654;-64
2024/01/11 02:49:31;;;;;;;8.40;2.80;;;;;;;-0.18;100.00;100480.81;108931;1251;1002402;-67
2024/01/11 02:52:20;;;;;;;6.80;2.60;;;;;;;-0.17;100.00;100472.09;109704;1253;72272;-67
2024/01/11 02:55:09;;;;;;;8.40;2.80;;;;;;;-0.16;100.00;100461.77;109641;1252;68639;-65
2024/01/11 02:57:57;;;;;;;8.00;2.90;;;;;;;-0.16;100.00;100460.36;109655;1251;72461;-66
2024/01/11 03:00:45;;;;;;;7.60;2.70;;;;;;;-0.18;100.00;100455.34;109630;1251;59858;-65
2024/01/11 03:03:33;;;;;;;10.70;3.10;;;;;;;-0.19;100.00;100469.69;109703;1251;60260;-64
2024/01/11 03:06:22;;;;;;;11.40;3.50;;;;;;;-0.20;100.00;100461.17;109621;1250;72218;-65
2024/01/11 03:09:11;;;;;;;9.20;3.10;;;;;;;-0.22;100.00;100453.89;109623;1250;67927;-64
2024/01/11 03:11:58;;;;;;;8.20;2.70;;;;;;;-0.24;100.00;100456.37;109590;1250;72856;-64
2024/01/11 03:14:46;;;;;;;8.30;3.10;;;;;;;-0.24;100.00;100460.58;109621;1251;58515;-63
2024/01/11 03:17:34;;;;;;;9.60;2.80;;;;;;;-0.25;100.00;100466.02;109627;1251;59613;-64
2024/01/11 03:20:24;;;;;;;7.60;3.00;;;;;;;-0.24;100.00;100471.90;109614;1252;71154;-64
2024/01/11 03:23:12;;;;;;;7.60;2.90;;;;;;;-0.23;100.00;100468.23;108857;1251;1002465;-64
2024/01/11 03:26:00;;;;;;;7.90;3.20;;;;;;;-0.24;100.00;100467.02;109622;1251;73437;-64
2024/01/11 03:28:49;;;;;;;9.00;2.80;;;;;;;-0.22;100.00;100463.68;109596;1251;59243;-64
2024/01/11 03:31:37;;;;;;;8.10;2.80;;;;;;;-0.21;100.00;100459.60;109705;1251;60194;-64
2024/01/11 03:34:25;;;;;;;8.70;2.70;;;;;;;-0.20;100.00;100470.58;109617;1250;71259;-64
2024/01/11 03:37:13;;;;;;;8.40;2.80;;;;;;;-0.18;100.00;100478.04;109479;1251;67618;-63
2024/01/11 03:40:03;;;;;;;8.20;2.80;;;;;;;-0.17;100.00;100479.41;109698;1251;72592;-64
2024/01/11 03:42:51;;;;;;;7.10;2.70;;;;;;;-0.15;100.00;100479.02;109449;1251;58606;-67
2024/01/11 03:45:39;;;;;;;6.70;2.30;;;;;;;-0.14;100.00;100479.69;109637;1250;60389;-63
2024/01/11 03:48:27;;;;;;;8.30;2.70;;;;;;;-0.13;100.00;100474.73;109603;1251;72280;-63
2024/01/11 03:51:15;;;;;;;8.10;2.70;;;;;;;-0.13;100.00;100471.80;109622;1251;66344;-65
2024/01/11 03:54:03;;;;;;;9.70;2.90;;;;;;;-0.12;100.00;100469.66;109590;1253;71695;-62
2024/01/11 03:56:51;;;;;;;8.90;2.70;;;;;;;-0.12;100.00;100461.48;109666;1251;58492;-63
2024/01/11 03:59:39;;;;;;;7.80;2.80;;;;;;;-0.11;100.00;100465.10;109596;1251;59042;-63
2024/01/11 04:02:27;;;;;;;6.00;2.30;;;;;;;-0.10;100.00;100467.35;109610;1254;72070;-62
2024/01/11 04:05:15;;;;;;;7.60;2.70;;;;;;;-0.10;100.00;100457.58;109704;1253;67522;-64
2024/01/11 04:08:07;;;;;;;8.40;2.70;;;;;;;-0.10;100.00;100463.69;109294;1252;71573;-63
2024/01/11 04:10:55;;;;;;;9.60;2.90;;;;;;;-0.10;100.00;100448.67;109558;1253;58769;-63
2024/01/11 04:13:43;;;;;;;6.60;2.40;;;;;;;-0.07;100.00;100442.32;109631;1251;58917;-63
2024/01/11 04:16:31;;;;;;;8.30;2.50;;;;;;;-0.07;100.00;100432.40;109602;1254;72687;-63
2024/01/11 04:19:19;;;;;;;7.70;2.60;;;;;;;-0.06;100.00;100429.04;109686;1251;66677;-63
2024/01/11 04:22:10;;;;;;;7.80;2.50;;;;;;;-0.04;100.00;100424.96;109668;1251;72694;-64
2024/01/11 04:24:58;;;;;;;7.20;2.60;;;;;;;-0.04;100.00;100425.31;109645;1253;57558;-63
2024/01/11 04:27:46;;;;;;;7.90;2.80;;;;;;;-0.03;100.00;100425.27;109660;1251;58803;-63
2024/01/11 04:30:33;;;;;;;8.00;2.60;;;;;;;-0.03;100.00;100423.20;109651;1251;73382;-64
2024/01/11 04:33:22;;;;;;;8.00;2.40;;;;;;;-0.04;100.00;100413.30;109583;1251;67891;-64
2024/01/11 04:36:10;;;;;;;6.50;2.60;;;;;;;-0.04;100.00;100404.03;109583;1251;71238;-63
2024/01/11 04:38:58;;;;;;;6.80;2.30;;;;;;;-0.03;100.00;100398.95;109465;1253;57176;-64
2024/01/11 04:41:46;;;;;;;7.40;2.40;;;;;;;-0.02;100.00;100397.86;109636;1251;59858;-62
2024/01/11 04:44:34;;;;;;;9.30;2.70;;;;;;;-0.02;100.00;100405.89;109674;1251;72247;-64
2024/01/11 04:47:22;;;;;;;7.00;3.00;;;;;;;0.01;100.00;100403.38;109625;1251;68153;-63
2024/01/11 04:50:09;;;;;;;8.90;2.80;;;;;;;0.02;100.00;100396.55;109622;1251;72618;-64
2024/01/11 04:52:57;;;;;;;8.30;2.70;;;;;;;0.04;100.00;100398.58;109607;1250;58524;-62
2024/01/11 04:55:45;;;;;;;8.40;2.90;;;;;;;0.03;100.00;100391.96;109623;1252;61410;-64
2024/01/11 04:58:33;;;;;;;8.90;2.90;;;;;;;0.03;100.00;100387.27;109676;1251;71000;-63
2024/01/11 05:01:21;;;;;;;7.00;2.70;;;;;;;0.04;100.00;100377.48;109680;1251;67590;-64
2024/01/11 05:04:09;;;;;;;9.40;3.00;;;;;;;0.04;100.00;100385.34;109613;1250;71322;-65
2024/01/11 05:06:57;;;;;;;8.90;2.80;;;;;;;0.03;100.00;100386.04;109603;1251;58505;-64
2024/01/11 05:09:45;;;;;;;7.50;2.60;;;;;;;0.05;100.00;100386.70;109670;1251;60106;-65
2024/01/11 05:12:33;;;;;;;7.50;2.40;;;;;;;0.05;100.00;100402.57;109655;1251;72143;-64
2024/01/11 05:15:20;;;;;;;7.50;2.60;;;;;;;0.06;100.00;100409.86;109429;1251;68060;-65
2024/01/11 05:18:08;;;;;;;8.60;2.80;;;;;;;0.09;100.00;100402.98;109625;1251;71624;-67
2024/01/11 05:20:56;;;;;;;8.40;2.90;;;;;;;0.06;100.00;100399.92;109381;1251;59478;-66
2024/01/11 05:23:44;;;;;;;8.10;2.60;;;;;;;0.10;100.00;100403.66;109572;1251;59117;-64
2024/01/11 05:26:32;;;;;;;9.50;3.10;;;;;;;0.08;100.00;100400.91;109487;1253;72961;-64
2024/01/11 05:29:21;;;;;;;8.10;3.00;;;;;;;0.10;100.00;100396.48;109589;1251;67871;-64
2024/01/11 05:32:09;;;;;;;7.10;2.90;;;;;;;0.09;100.00;100388.83;109579;1254;72928;-64
2024/01/11 05:34:57;;;;;;;9.10;3.10;;;;;;;0.10;100.00;100403.29;109552;1254;59452;-64
2024/01/11 05:37:45;;;;;;;7.60;2.80;;;;;;;0.12;100.00;100411.08;109432;1252;60024;-64
2024/01/11 05:40:33;;;;;;;11.40;3.00;;;;;;;0.13;100.00;100404.23;109464;1254;72954;-63
2024/01/11 05:43:24;;;;;;;7.30;3.20;;;;;;;0.15;100.00;100395.81;109596;1252;67903;-65
2024/01/11 05:46:12;;;;;;;8.00;2.80;;;;;;;0.15;100.00;100398.23;109295;1252;71403;-66
2024/01/11 05:49:00;;;;;;;10.00;3.20;;;;;;;0.17;100.00;100398.55;109560;1253;58473;-64
2024/01/11 05:51:48;;;;;;;8.20;3.20;;;;;;;0.18;100.00;100401.15;109376;1254;61534;-61
2024/01/11 05:54:36;;;;;;;10.00;3.10;;;;;;;0.17;100.00;100399.06;109601;1252;72165;-64
2024/01/11 05:57:24;;;;;;;10.00;3.00;;;;;;;0.18;100.00;100398.17;109562;1254;67726;-65
2024/01/11 06:00:14;;;;;;;8.00;2.50;;;;;;;0.20;100.00;100404.21;109469;1254;73834;-65
2024/01/11 06:03:02;;;;;;;10.20;3.00;;;;;;;0.21;100.00;100407.52;109608;1254;58439;-64
2024/01/11 06:05:50;;;;;;;10.50;3.40;;;;;;;0.23;100.00;100421.92;109585;1250;61065;-65
2024/01/11 06:08:39;;;;;;;10.20;3.30;;;;;;;0.25;100.00;100420.30;109574;1251;73497;-68
2024/01/11 06:11:28;;;;;;;7.50;2.80;;;;;;;0.26;100.00;100407.01;109633;1251;67896;-65
2024/01/11 06:14:15;;;;;;;9.40;2.70;;;;;;;0.26;100.00;100405.45;109587;1251;73768;-64
2024/01/11 06:17:04;;;;;;;6.80;2.60;;;;;;;0.26;100.00;100405.98;109573;1251;59920;-67
2024/01/11 06:19:51;;;;;;;10.00;3.20;;;;;;;0.25;100.00;100405.48;109596;1255;60252;-64
2024/01/11 06:22:39;;;;;;;8.40;2.70;;;;;;;0.24;100.00;100395.58;109592;1251;73179;-62
2024/01/11 06:25:30;;;;;;;9.90;3.20;;;;;;;0.23;100.00;100390.33;109760;1251;66374;-65
2024/01/11 06:28:18;;;;;;;11.60;3.20;;;;;;;0.21;100.00;100386.58;109679;1251;72701;-63
2024/01/11 06:31:06;;;;;;;10.10;3.10;;;;;;;0.20;100.00;100378.73;109606;1251;57384;-63
2024/01/11 06:33:54;;;;;;;10.10;3.00;;;;;;;0.20;100.00;100385.72;109595;1251;60062;-66
2024/01/11 06:36:43;;;;;;;8.90;3.30;;;;;;;0.20;100.00;100388.70;109650;1251;71971;-64
2024/01/11 06:39:30;;;;;;;8.20;3.00;;;;;;;0.19;100.00;100395.00;109701;1251;68101;-65
2024/01/11 06:42:18;;;;;;;9.90;2.60;;;;;;;0.18;100.00;100401.14;109569;1251;72617;-63
2024/01/11 06:45:08;;;;;;;7.80;2.80;;;;;;;0.18;100.00;100405.35;109645;1251;57518;-64
2024/01/11 06:47:56;;;;;;;8.40;2.70;;;;;;;0.17;100.00;100409.02;109754;1251;59948;-63
2024/01/11 06:50:45;;;;;;;10.10;2.60;;;;;;;0.17;100.00;100406.05;109595;1251;73099;-64
2024/01/11 06:53:33;;;;;;;8.60;2.80;;;;;;;0.18;100.00;100410.55;109757;1251;67980;-63
2024/01/11 06:56:23;;;;;;;6.30;2.50;;;;;;;0.20;100.00;100416.09;109539;1251;72664;-66
2024/01/11 06:59:12;;;;;;;10.90;3.20;;;;;;;0.20;100.00;100413.64;109495;1251;57159;-64
2024/01/11 07:02:00;;;;;;;9.20;2.60;;;;;;;0.21;100.00;100421.98;109712;1251;60281;-70
2024/01/11 07:04:48;;;;;;;8.10;2.80;;;;;;;0.21;100.00;100424.45;109138;1257;73126;-73
2024/01/11 07:07:36;;;;;;;9.70;3.40;;;;;;;0.21;100.00;100420.06;109306;1256;68589;-69
2024/01/11 07:10:23;;;;;;;11.60;3.70;;;;;;;0.20;100.00;100428.30;109098;1256;74149;-73
2024/01/11 07:13:14;;;;;;;11.10;3.60;;;;;;;0.23;100.00;100441.48;109135;1255;57083;-72
2024/01/11 07:16:03;;;;;;;9.60;3.20;;;;;;;0.23;100.00;100435.20;109370;1259;60080;-71
2024/01/11 07:18:51;;;;;;;8.70;3.40;;;;;;;0.25;100.00;100438.27;109349;1254;71003;-71
2024/01/11 07:21:40;;;;;;;8.80;3.10;;;;;;;0.28;100.00;100434.70;109219;1254;66581;-64
2024/01/11 07:24:35;;;;;;;11.20;4.00;;;;;;;0.29;100.00;100436.59;109135;1254;73700;-68
2024/01/11 07:27:23;;;;;;;10.80;3.60;;;;;;;0.31;100.00;100435.31;109158;1254;58673;-64
2024/01/11 07:30:12;;;;;;;12.10;3.80;;;;;;;0.29;100.00;100428.55;109245;1254;60132;-65
2024/01/11 07:33:01;;;;;;;10.20;4.10;;;;;;;0.29;100.00;100434.66;109382;1254;72045;-66
2024/01/11 07:35:50;;;;;;;13.30;4.00;;;;;;;0.31;100.00;100434.09;109344;1251;66498;-64
2024/01/11 07:38:38;;;;;;;12.00;3.60;;;;;;;0.34;100.00;100436.09;109542;1251;73680;-64
2024/01/11 07:41:26;;;;;;;12.30;4.00;;;;;;;0.33;100.00;100436.81;109505;1251;58692;-63
2024/01/11 07:44:14;;;;;;;9.60;3.60;;;;;;;0.37;100.00;100437.61;109498;1252;60043;-65
2024/01/11 07:47:03;;;;;;;11.30;3.90;;;;;;;0.39;100.00;100437.34;109553;1251;71001;-65
2024/01/11 07:49:50;;;;;;;9.20;3.50;;;;;;;0.41;100.00;100438.70;109332;1251;66713;-66
2024/01/11 07:52:42;;;;;;;8.60;2.90;;;;;;;0.42;100.00;100441.10;109610;1251;72534;-65
2024/01/11 07:55:31;;;;;;;9.70;3.30;;;;;;;0.45;100.00;100437.84;109670;1251;58853;-65
2024/01/11 07:58:20;;;;;;;11.40;3.20;;;;;;;0.50;100.00;100434.75;109553;1251;61042;-64
2024/01/11 08:01:09;;;;;;;12.10;3.30;;;;;;;0.53;100.00;100426.98;109549;1251;72883;-63
2024/01/11 08:03:57;;;;;;;9.20;3.40;;;;;;;0.56;100.00;100437.20;109560;1251;69057;-66
2024/01/11 08:06:45;;;;;;;10.80;2.90;;;;;;;0.59;100.00;100433.44;109495;1254;72480;-64
2024/01/11 08:09:33;;;;;;;8.30;2.70;;;;;;;0.60;100.00;100436.57;109537;1251;56925;-62
2024/01/11 08:12:23;;;;;;;9.20;3.20;;;;;;;0.62;100.00;100437.17;109634;1251;60585;-65
2024/01/11 08:15:17;;;;;;;8.10;2.80;;;;;;;0.65;100.00;100439.02;109476;1251;71971;-63
2024/01/11 08:18:08;;;;;;;8.90;2.90;;;;;;;0.70;100.00;100433.79;109628;1251;66370;-68
2024/01/11 08:20:59;;;;;;;8.40;3.00;;;;;;;0.78;100.00;100427.60;108643;1251;1002923;-64
2024/01/11 08:23:50;;;;;;;10.70;3.40;;;;;;;0.94;100.00;100438.80;109609;1251;58860;-65
2024/01/11 08:26:42;;;;;;;8.90;2.80;;;;;;;1.03;100.00;100430.51;109594;1251;58704;-63
2024/01/11 08:29:33;;;;;;;10.20;3.10;;;;;;;1.14;100.00;100426.82;109578;1251;70106;-64
2024/01/11 08:32:24;;;;;;;10.30;2.90;;;;;;;1.23;100.00;100419.87;109612;1251;66780;-66
2024/01/11 08:35:21;;;;;;;8.80;3.10;;;;;;;1.35;100.00;100422.77;109621;1251;71119;-64
2024/01/11 08:38:12;;;;;;;13.30;5.30;;;;;;;1.42;100.00;100427.64;109545;1251;58945;-65
2024/01/11 08:41:03;;;;;;;9.60;3.50;;;;;;;1.50;100.00;100427.00;109630;1251;57804;-65
2024/01/11 08:43:53;;;;;;;7.80;3.00;;;;;;;1.61;100.00;100426.97;109527;1251;72019;-64
2024/01/11 08:46:46;;;;;;;11.30;3.10;;;;;;;1.66;100.00;100418.91;109617;1251;67181;-64
2024/01/11 08:49:39;;;;;;;9.20;3.00;;;;;;;1.70;100.00;100415.30;109540;1251;72511;-66
2024/01/11 08:52:28;;;;;;;9.60;3.00;;;;;;;2.12;100.00;100416.23;109505;1254;56920;-63
2024/01/11 08:55:16;;;;;;;7.90;3.10;;;;;;;2.46;100.00;100422.85;109619;1251;61531;-64
2024/01/11 08:58:04;;;;;;;9.70;3.10;;;;;;;2.54;100.00;100421.31;109557;1251;72180;-62
2024/01/11 09:00:52;;;;;;;9.10;3.00;;;;;;;2.56;100.00;100410.02;109610;1251;67594;-64
2024/01/11 09:03:40;;;;;;;8.60;3.40;;;;;;;2.76;100.00;100398.21;109552;1251;71907;-65
2024/01/11 09:06:29;;;;;;;8.70;3.20;;;;;;;3.33;100.00;100399.55;109549;1251;57151;-65
2024/01/11 09:09:17;;;;;;;10.90;3.40;;;;;;;4.51;99.74;100411.03;109559;1251;60055;-64
2024/01/11 09:12:06;;;;;;;9.90;3.10;;;;;;;4.53;98.59;100405.62;108872;1250;1002348;-63
2024/01/11 09:14:54;;;;;;;10.10;3.30;;;;;;;4.37;97.44;100404.63;109585;1251;67202;-64
2024/01/11 09:17:42;;;;;;;7.70;2.80;;;;;;;4.21;98.12;100410.66;109394;1251;72420;-62
2024/01/11 09:20:30;;;;;;;7.60;2.70;;;;;;;4.00;97.98;100410.51;109603;1251;58096;-62
2024/01/11 09:23:19;;;;;;;8.50;2.60;;;;;;;3.80;98.01;100410.55;109532;1251;59031;-70
2024/01/11 09:26:08;;;;;;;8.80;3.20;;;;;;;3.68;99.34;100405.76;109544;1251;70683;-64
2024/01/11 09:28:56;;;;;;;8.30;2.80;;;;;;;3.64;99.84;100407.18;109568;1251;66607;-65
2024/01/11 09:31:44;;;;;;;9.00;3.10;;;;;;;3.49;99.91;100402.90;109155;1251;238265;-62
2024/01/11 09:34:34;;;;;;;9.40;3.30;;;;;;;3.42;100.00;100405.52;109286;1251;57294;-62
2024/01/11 09:37:22;;;;;;;8.10;3.20;;;;;;;3.31;99.94;100402.61;109584;1251;60372;-65
2024/01/11 09:40:11;;;;;;;8.10;2.70;;;;;;;3.34;100.00;100408.98;109545;1251;70976;-62
2024/01/11 09:43:03;;;;;;;8.40;3.20;;;;;;;3.14;100.00;100409.65;107195;1251;1002417;-62
2024/01/11 09:45:53;;;;;;;8.30;2.80;;;;;;;3.02;100.00;100409.08;109480;1251;73548;-62
2024/01/11 09:48:44;;;;;;;8.50;2.80;;;;;;;2.89;100.00;100403.63;109382;1253;58000;-63
2024/01/11 09:51:34;;;;;;;9.30;3.20;;;;;;;2.88;100.00;100408.40;109133;1253;60366;-62
2024/01/11 09:54:24;;;;;;;8.60;2.70;;;;;;;2.82;100.00;100408.33;109368;1252;70726;-62
2024/01/11 09:57:19;;;;;;;9.80;3.20;;;;;;;2.82;100.00;100393.95;109083;1256;66615;-62
2024/01/11 10:00:09;;;;;;;10.80;3.00;;;;;;;2.84;100.00;100409.28;106814;1256;1002821;-62
2024/01/11 10:02:57;;;;;;;8.00;2.70;;;;;;;2.82;100.00;100404.96;109039;1256;58078;-60
2024/01/11 10:05:49;;;;;;;8.10;2.70;;;;;;;2.82;100.00;100404.27;109177;1255;60969;-63
2024/01/11 10:08:36;;;;;;;7.80;2.90;;;;;;;2.89;100.00;100407.34;109126;1255;72936;-61
2024/01/11 10:11:24;;;;;;;7.20;2.60;;;;;;;2.95;100.00;100402.90;109168;1256;68014;-62
2024/01/11 10:14:13;;;;;;;7.10;2.40;;;;;;;2.99;100.00;100412.02;109172;1255;72138;-61
2024/01/11 10:17:01;;;;;;;6.70;2.40;;;;;;;2.95;100.00;100409.90;109181;1255;56952;-61
2024/01/11 10:19:49;;;;;;;9.10;2.50;;;;;;;2.86;100.00;100417.08;109172;1254;60116;-63
2024/01/11 10:22:42;;;;;;;8.60;2.70;;;;;;;2.80;100.00;100415.05;109282;1254;73586;-63
2024/01/11 10:25:29;;;;;;;9.20;2.50;;;;;;;2.71;100.00;100415.36;109117;1256;67211;-59
2024/01/11 10:28:18;;;;;;;8.60;2.70;;;;;;;2.67;100.00;100417.64;109299;1252;72408;-62
2024/01/11 10:31:07;;;;;;;9.80;2.60;;;;;;;2.65;100.00;100410.19;109507;1252;58565;-61
2024/01/11 10:33:57;;;;;;;7.40;2.70;;;;;;;2.62;100.00;100409.11;109566;1252;57816;-63
2024/01/11 10:36:45;;;;;;;8.60;2.70;;;;;;;2.60;100.00;100408.50;109488;1252;70830;-61
2024/01/11 10:39:35;;;;;;;8.10;2.50;;;;;;;2.56;100.00;100405.83;109573;1252;68158;-61
2024/01/11 10:42:27;;;;;;;9.80;2.90;;;;;;;2.52;100.00;100404.39;109470;1253;72698;-61
2024/01/11 10:45:17;;;;;;;7.70;2.90;;;;;;;2.50;100.00;100404.83;109392;1253;57459;-62
2024/01/11 10:48:15;;;;;;;11.10;3.10;;;;;;;2.45;100.00;100400.46;109380;1252;58755;-62
2024/01/11 10:51:09;;;;;;;11.30;3.50;;;;;;;2.43;100.00;100410.17;109222;1252;72550;-62
2024/01/11 10:54:00;;;;;;;9.30;3.60;;;;;;;2.45;100.00;100416.95;109418;1253;67844;-63
2024/01/11 10:56:50;;;;;;;10.00;3.10;;;;;;;2.45;100.00;100417.11;109507;1252;72678;-62
2024/01/11 10:59:40;;;;;;;11.30;3.70;;;;;;;2.44;100.00;100427.98;109377;1252;57181;-63
2024/01/11 11:02:35;;;;;;;9.10;3.20;;;;;;;2.44;100.00;100436.58;108607;1253;1002232;-63
2024/01/11 11:05:25;;;;;;;10.30;2.70;;;;;;;2.46;100.00;100439.63;109506;1252;72365;-62
2024/01/11 11:08:13;;;;;;;9.10;3.50;;;;;;;2.51;100.00;100431.06;109292;1251;68016;-62
2024/01/11 11:11:07;;;;;;;9.30;2.30;;;;;;;2.52;100.00;100426.48;109419;1252;71553;-62
2024/01/11 11:14:00;;;;;;;9.00;2.70;;;;;;;2.54;100.00;100426.41;109258;1251;58172;-61
2024/01/11 11:16:48;;;;;;;7.60;2.50;;;;;;;2.57;100.00;100424.70;109540;1251;60035;-63
2024/01/11 11:19:36;;;;;;;7.40;2.70;;;;;;;2.58;100.00;100423.61;109518;1251;72256;-61
2024/01/11 11:22:27;;;;;;;9.60;3.00;;;;;;;2.59;100.00;100421.13;109263;1251;67880;-63
2024/01/11 11:25:28;;;;;;;11.40;3.00;;;;;;;2.59;100.00;100419.75;109509;1251;72369;-65
2024/01/11 11:28:18;;;;;;;9.80;3.30;;;;;;;2.54;100.00;100419.38;109511;1251;58631;-63
2024/01/11 11:31:06;;;;;;;11.30;4.30;;;;;;;2.54;100.00;100415.53;109660;1251;60098;-61
2024/01/11 11:33:54;;;;;;;8.60;3.20;;;;;;;2.58;100.00;100412.07;109568;1251;72380;-63
2024/01/11 11:36:46;;;;;;;8.50;2.90;;;;;;;2.57;100.00;100409.10;109622;1251;67683;-61
2024/01/11 11:39:34;;;;;;;11.80;2.90;;;;;;;2.55;100.00;100409.20;109505;1251;72754;-63
2024/01/11 11:42:24;;;;;;;9.10;2.80;;;;;;;2.50;100.00;100409.02;109626;1251;58476;-63
2024/01/11 11:45:24;;;;;;;8.70;3.30;;;;;;;2.47;100.00;100413.36;109534;1251;61397;-65
2024/01/11 11:48:56;;;;;;;8.70;3.00;;;;;;;2.52;100.00;100407.20;109513;1251;72142;-64
2024/01/11 11:51:44;;;;;;;7.70;2.40;;;;;;;2.55;100.00;100411.28;109654;1251;68729;-63
2024/01/11 11:54:32;;;;;;;6.60;2.20;;;;;;;2.59;100.00;100404.66;105526;1251;1002913;-63
2024/01/11 11:57:21;;;;;;;7.60;2.10;;;;;;;2.63;100.00;100406.09;109548;1250;57070;-67
2024/01/11 12:00:12;;;;;;;7.00;2.10;;;;;;;2.63;100.00;100397.82;109506;1251;58741;-63
2024/01/11 12:03:03;;;;;;;6.10;1.80;;;;;;;2.67;100.00;100400.48;109508;1251;72961;-63
2024/01/11 12:05:52;;;;;;;7.20;2.00;;;;;;;2.68;100.00;100398.52;109560;1251;68283;-66
2024/01/11 12:08:43;;;;;;;8.50;1.70;;;;;;;2.65;100.00;100403.35;109611;1251;72754;-63
2024/01/11 12:11:32;;;;;;;6.90;1.60;;;;;;;2.64;100.00;100406.91;109440;1251;57475;-67
2024/01/11 12:14:20;;;;;;;7.10;2.10;;;;;;;2.62;100.00;100403.50;109655;1251;58759;-65
2024/01/11 12:17:09;;;;;;;6.70;1.90;;;;;;;2.62;100.00;100407.34;109652;1250;73367;-64
2024/01/11 12:19:57;;;;;;;9.50;2.30;;;;;;;2.62;100.00;100402.61;109612;1251;68941;-62
2024/01/11 12:22:45;;;;;;;5.30;1.80;;;;;;;2.60;100.00;100402.85;109402;1251;72670;-63
2024/01/11 12:25:33;;;;;;;7.30;2.10;;;;;;;2.57;100.00;100400.20;109574;1251;57196;-64
2024/01/11 12:28:22;;;;;;;6.70;1.80;;;;;;;2.56;100.00;100394.27;109606;1251;59993;-65
2024/01/11 12:31:12;;;;;;;6.70;2.10;;;;;;;2.53;100.00;100390.48;109561;1251;72272;-65
2024/01/11 12:34:03;;;;;;;6.90;2.20;;;;;;;2.53;100.00;100385.27;109507;1251;68125;-65
2024/01/11 12:37:00;;;;;;;9.00;1.90;;;;;;;2.57;100.00;100387.39;109426;1251;72692;-65
2024/01/11 12:39:48;;;;;;;8.00;2.10;;;;;;;2.64;100.00;100402.19;109393;1252;58210;-65
2024/01/11 12:42:37;;;;;;;6.80;1.70;;;;;;;2.59;100.00;100398.00;109440;1253;60320;-65
2024/01/11 12:45:29;;;;;;;5.80;1.60;;;;;;;2.59;100.00;100407.63;109566;1252;71070;-65
2024/01/11 12:48:18;;;;;;;9.50;2.20;;;;;;;2.58;100.00;100405.57;109480;1252;66271;-65
2024/01/11 12:51:06;;;;;;;6.90;1.90;;;;;;;2.54;100.00;100395.20;109427;1251;72673;-65